createdAt,value
2022-08-09T00:00:11.292Z,34.50
2022-08-09T00:02:49.441Z,34.85
2022-08-09T00:06:16.586Z,33.63
2022-08-09T00:08:09.990Z,35.38
2022-08-09T00:10:39.225Z,33.70
2022-08-09T00:13:16.767Z,33.53
2022-08-09T00:15:59.362Z,35.42
2022-08-09T00:18:35.832Z,34.97
2022-08-09T00:21:08.957Z,35.80
2022-08-09T00:23:56.724Z,34.83
2022-08-09T00:26:30.125Z,34.78
2022-08-09T00:29:02.246Z,33.90
2022-08-09T00:32:00.948Z,34.10
2022-08-09T00:34:19.272Z,34.85
2022-08-09T00:36:48.923Z,36.13
2022-08-09T00:40:09.793Z,34.78
2022-08-09T00:44:11.499Z,33.72
2022-08-09T00:44:53.633Z,35.10
2022-08-09T00:47:24.681Z,35.67
2022-08-09T00:49:55.051Z,35.00
2022-08-09T00:52:30.163Z,36.35
2022-08-09T00:55:02.617Z,34.58
2022-08-09T00:57:34.645Z,36.50
2022-08-09T01:00:21.391Z,36.60
2022-08-09T01:03:04.129Z,37.53
2022-08-09T01:05:56.921Z,37.17
2022-08-09T01:08:35.345Z,36.03
2022-08-09T01:11:15.001Z,36.13
2022-08-09T01:13:59.898Z,37.55
2022-08-09T01:16:47.322Z,38.38
2022-08-09T01:19:42.370Z,39.05
2022-08-09T01:22:32.814Z,36.83
2022-08-09T01:25:04.182Z,37.60
2022-08-09T01:27:33.390Z,40.63
2022-08-09T01:30:04.601Z,40.55
2022-08-09T01:32:46.549Z,42.00
2022-08-09T01:35:37.930Z,40.42
2022-08-09T01:38:15.763Z,41.53
2022-08-09T01:41:07.121Z,41.67
2022-08-09T01:43:51.218Z,41.50
2022-08-09T01:46:47.163Z,42.67
2022-08-09T01:49:18.580Z,40.97
2022-08-09T01:52:07.030Z,42.58
2022-08-09T01:54:51.402Z,43.20
2022-08-09T01:57:39.833Z,41.30
2022-08-09T02:00:35.142Z,42.90
2022-08-09T02:03:03.232Z,42.40
2022-08-09T02:05:38.236Z,43.15
2022-08-09T02:08:40.945Z,43.92
2022-08-09T02:11:17.272Z,44.95
2022-08-09T02:14:07.967Z,47.22
2022-08-09T02:16:59.402Z,45.92
2022-08-09T02:19:38.748Z,47.42
2022-08-09T02:22:37.147Z,47.67
2022-08-09T02:25:15.132Z,48.08
2022-08-09T02:28:00.137Z,48.80
2022-08-09T02:30:38.125Z,45.83
2022-08-09T02:33:14.105Z,48.92
2022-08-09T02:38:35.580Z,46.60
2022-08-09T02:41:08.890Z,46.58
2022-08-09T02:43:53.982Z,46.28
2022-08-09T02:46:29.308Z,46.60
2022-08-09T02:49:06.306Z,47.85
2022-08-09T02:51:40.587Z,45.97
2022-08-09T02:54:13.872Z,46.67
2022-08-09T02:59:26.492Z,43.25
2022-08-09T03:02:09.722Z,42.22
2022-08-09T03:04:41.143Z,43.63
2022-08-09T03:07:14.106Z,44.15
2022-08-09T03:09:53.871Z,41.95
2022-08-09T03:12:25.701Z,40.17
2022-08-09T03:14:54.215Z,37.08
2022-08-09T03:17:26.725Z,31.50
2022-08-09T03:20:05.024Z,32.65
2022-08-09T03:22:44.884Z,33.95
2022-08-09T03:25:26.038Z,33.83
2022-08-09T03:28:03.908Z,34.13
2022-08-09T03:30:33.941Z,32.58
2022-08-09T03:33:17.796Z,32.15
2022-08-09T03:36:16.011Z,29.88
2022-08-09T03:38:42.986Z,31.75
2022-08-09T03:41:15.051Z,27.63
2022-08-09T03:44:04.055Z,24.17
2022-08-09T03:46:33.023Z,25.35
2022-08-09T03:49:03.995Z,25.42
2022-08-09T03:51:56.331Z,24.45
2022-08-09T03:54:29.138Z,23.55
2022-08-09T03:57:00.237Z,15.40
2022-08-09T03:59:43.270Z,15.02
2022-08-09T04:02:26.242Z,7.80
2022-08-09T04:05:00.738Z,11.48
2022-08-09T04:07:47.488Z,12.30
2022-08-09T04:10:20.805Z,12.40
2022-08-09T04:12:56.022Z,11.82
2022-08-09T04:15:40.522Z,10.93
2022-08-09T04:18:16.538Z,8.07
2022-08-09T04:20:49.663Z,7.70
2022-08-09T04:23:17.824Z,5.70
2022-08-09T04:25:51.803Z,4.75
2022-08-09T04:28:30.686Z,4.88
2022-08-09T04:31:07.774Z,4.90
2022-08-09T04:33:52.333Z,4.40
2022-08-09T04:36:26.720Z,3.88
2022-08-09T04:38:55.069Z,2.50
2022-08-09T04:41:24.434Z,2.13
2022-08-09T04:44:06.621Z,3.60
2022-08-09T04:46:59.089Z,3.67
2022-08-09T04:49:40.478Z,3.53
2022-08-09T04:52:22.205Z,2.95
2022-08-09T04:54:58.731Z,2.80
2022-08-09T04:57:27.154Z,2.47
2022-08-09T05:00:16.857Z,2.40
2022-08-09T05:02:52.459Z,2.42
2022-08-09T05:05:31.340Z,2.60
2022-08-09T05:07:59.013Z,3.00
2022-08-09T05:10:27.418Z,3.03
2022-08-09T05:12:54.934Z,2.65
2022-08-09T05:15:38.669Z,2.25
2022-08-09T05:18:38.874Z,2.28
2022-08-09T05:20:58.183Z,2.83
2022-08-09T05:23:53.769Z,3.15
2022-08-09T05:26:22.229Z,3.72
2022-08-09T05:29:00.648Z,3.80
2022-08-09T05:31:44.339Z,4.43
2022-08-09T05:34:17.043Z,5.10
2022-08-09T05:36:47.329Z,5.10
2022-08-09T05:39:29.012Z,6.20
2022-08-09T05:42:01.597Z,5.90
2022-08-09T05:44:34.904Z,5.15
2022-08-09T05:47:05.561Z,5.50
2022-08-09T05:50:24.544Z,5.22
2022-08-09T05:52:24.820Z,5.43
2022-08-09T05:55:07.012Z,6.00
2022-08-09T05:57:51.405Z,5.40
2022-08-09T06:00:29.097Z,5.75
2022-08-09T06:03:02.214Z,6.05
2022-08-09T06:05:50.499Z,5.60
2022-08-09T06:08:24.375Z,5.57
2022-08-09T06:10:58.158Z,5.20
2022-08-09T06:13:28.546Z,5.57
2022-08-09T06:16:05.244Z,5.22
2022-08-09T06:18:33.678Z,5.82
2022-08-09T06:21:02.374Z,7.53
2022-08-09T06:23:58.982Z,8.20
2022-08-09T06:26:22.431Z,9.00
2022-08-09T06:29:01.168Z,5.28
2022-08-09T06:31:39.842Z,8.15
2022-08-09T06:34:23.283Z,6.35
2022-08-09T06:36:57.420Z,4.97
2022-08-09T06:39:38.886Z,4.25
2022-08-09T06:42:24.440Z,6.68
2022-08-09T06:44:57.302Z,6.60
2022-08-09T06:47:24.889Z,7.82
2022-08-09T06:50:14.274Z,4.57
2022-08-09T06:52:48.777Z,5.22
2022-08-09T06:58:02.886Z,5.50
2022-08-09T07:00:55.637Z,7.15
2022-08-09T07:03:28.607Z,3.80
2022-08-09T07:06:02.740Z,3.60
2022-08-09T07:08:32.401Z,4.10
2022-08-09T07:10:59.850Z,4.30
2022-08-09T07:13:31.346Z,3.70
2022-08-09T07:16:42.255Z,3.45
2022-08-09T07:19:00.447Z,3.30
2022-08-09T07:21:30.919Z,3.75
2022-08-09T07:24:01.599Z,3.30
2022-08-09T07:26:32.633Z,3.80
2022-08-09T07:29:12.007Z,3.53
2022-08-09T07:31:46.022Z,3.35
2022-08-09T07:34:20.435Z,3.88
2022-08-09T07:36:50.241Z,3.85
2022-08-09T07:39:40.285Z,3.90
2022-08-09T07:42:09.419Z,3.72
2022-08-09T07:44:51.165Z,3.63
2022-08-09T07:47:21.078Z,3.50
2022-08-09T07:50:04.773Z,3.50
2022-08-09T07:52:35.896Z,3.40
2022-08-09T07:55:08.694Z,3.40
2022-08-09T07:57:36.522Z,3.28
2022-08-09T08:00:08.878Z,3.33
2022-08-09T08:02:43.150Z,3.00
2022-08-09T08:05:18.555Z,3.00
2022-08-09T08:08:59.713Z,3.00
2022-08-09T08:10:34.739Z,2.80
2022-08-09T08:13:04.050Z,2.67
2022-08-09T08:15:35.528Z,3.00
2022-08-09T08:18:05.242Z,3.40
2022-08-09T08:20:33.506Z,3.10
2022-08-09T08:23:03.669Z,3.03
2022-08-09T08:25:44.261Z,2.97
2022-08-09T08:28:15.270Z,2.95
2022-08-09T08:30:44.658Z,3.10
2022-08-09T08:33:24.092Z,3.17
2022-08-09T08:35:59.360Z,2.80
2022-08-09T08:38:29.771Z,3.08
2022-08-09T08:40:58.372Z,2.95
2022-08-09T08:43:27.422Z,3.13
2022-08-09T08:46:03.735Z,3.42
2022-08-09T08:48:51.945Z,3.08
2022-08-09T08:51:23.204Z,2.97
2022-08-09T08:54:03.408Z,3.08
2022-08-09T08:56:36.578Z,3.20
2022-08-09T08:59:19.859Z,3.45
2022-08-09T09:01:53.077Z,3.38
2022-08-09T09:04:29.098Z,3.50
2022-08-09T09:07:01.438Z,3.33
2022-08-09T09:09:58.556Z,3.30
2022-08-09T09:12:22.294Z,3.53
2022-08-09T09:14:51.866Z,3.67
2022-08-09T09:17:20.992Z,3.60
2022-08-09T09:19:48.657Z,4.20
2022-08-09T09:22:26.921Z,4.20
2022-08-09T09:26:04.536Z,4.32
2022-08-09T09:28:05.948Z,4.03
2022-08-09T09:30:41.832Z,4.25
2022-08-09T09:33:13.618Z,4.20
2022-08-09T09:36:01.386Z,4.25
2022-08-09T09:38:46.748Z,4.40
2022-08-09T09:41:33.462Z,4.43
2022-08-09T09:44:27.676Z,4.35
2022-08-09T09:46:57.952Z,4.50
2022-08-09T09:49:55.984Z,5.38
2022-08-09T09:52:36.060Z,5.18
2022-08-09T09:55:16.342Z,5.15
2022-08-09T09:58:03.425Z,5.63
2022-08-09T10:00:54.707Z,5.18
2022-08-09T10:04:00.077Z,5.28
2022-08-09T10:06:39.231Z,5.20
2022-08-09T10:09:22.086Z,5.55
2022-08-09T10:12:12.081Z,5.40
2022-08-09T10:14:48.019Z,5.13
2022-08-09T10:17:55.150Z,5.43
2022-08-09T10:20:27.660Z,5.15
2022-08-09T10:23:16.948Z,5.45
2022-08-09T10:26:05.973Z,5.72
2022-08-09T10:28:35.479Z,6.85
2022-08-09T10:34:10.736Z,5.65
2022-08-09T10:36:40.201Z,6.38
2022-08-09T10:39:15.949Z,5.53
2022-08-09T10:41:47.525Z,5.68
2022-08-09T10:44:24.925Z,5.80
2022-08-09T10:48:11.953Z,5.80
2022-08-09T10:50:14.993Z,5.40
2022-08-09T10:53:10.273Z,5.63
2022-08-09T10:55:58.621Z,5.68
2022-08-09T10:58:34.473Z,4.85
2022-08-09T11:03:02.961Z,6.00
2022-08-09T11:04:27.778Z,5.32
2022-08-09T11:06:59.680Z,5.40
2022-08-09T11:09:41.220Z,5.72
2022-08-09T11:12:18.889Z,5.55
2022-08-09T11:15:01.791Z,5.30
2022-08-09T11:17:31.049Z,5.38
2022-08-09T11:20:10.261Z,6.18
2022-08-09T11:22:56.862Z,5.70
2022-08-09T11:25:47.987Z,5.70
2022-08-09T11:28:38.357Z,5.28
2022-08-09T11:31:49.167Z,5.07
2022-08-09T11:34:51.613Z,5.45
2022-08-09T11:37:28.028Z,5.50
2022-08-09T11:40:11.262Z,5.70
2022-08-09T11:42:51.248Z,5.00
2022-08-09T11:45:26.280Z,4.78
2022-08-09T11:48:33.097Z,4.82
2022-08-09T11:52:48.768Z,4.82
2022-08-09T11:54:21.527Z,5.13
2022-08-09T11:57:56.831Z,5.30
2022-08-09T12:00:30.997Z,5.25
2022-08-09T12:03:40.987Z,5.10
2022-08-09T12:05:50.505Z,5.63
2022-08-09T12:08:19.797Z,4.78
2022-08-09T12:10:53.572Z,5.10
2022-08-09T12:14:09.720Z,5.57
2022-08-09T12:16:38.236Z,4.85
2022-08-09T12:19:13.224Z,4.82
2022-08-09T12:21:51.024Z,5.07
2022-08-09T12:24:24.379Z,4.75
2022-08-09T12:29:13.893Z,4.82
2022-08-09T12:30:04.186Z,4.70
2022-08-09T12:32:42.669Z,4.97
2022-08-09T12:35:13.317Z,5.00
2022-08-09T12:37:52.447Z,5.40
2022-08-09T12:40:25.010Z,4.80
2022-08-09T12:42:53.865Z,4.68
2022-08-09T12:45:33.707Z,5.22
2022-08-09T12:48:20.461Z,4.68
2022-08-09T12:50:56.187Z,4.97
2022-08-09T12:53:35.015Z,4.85
2022-08-09T12:56:43.727Z,5.13
2022-08-09T12:59:22.521Z,5.18
2022-08-09T13:01:59.287Z,4.97
2022-08-09T13:04:36.894Z,5.10
2022-08-09T13:07:17.094Z,4.60
2022-08-09T13:09:55.413Z,4.75
2022-08-09T13:12:30.607Z,4.43
2022-08-09T13:15:09.680Z,5.53
2022-08-09T13:18:03.263Z,4.80
2022-08-09T13:21:03.992Z,5.00
2022-08-09T13:24:06.388Z,4.53
2022-08-09T13:26:37.440Z,4.53
2022-08-09T13:29:28.412Z,4.68
2022-08-09T13:32:17.350Z,4.90
2022-08-09T13:34:52.689Z,4.95
2022-08-09T13:37:51.139Z,4.50
2022-08-09T13:41:50.416Z,4.97
2022-08-09T13:42:57.736Z,4.90
2022-08-09T13:45:32.230Z,5.10
2022-08-09T13:48:14.580Z,5.00
2022-08-09T13:50:43.308Z,5.55
2022-08-09T13:53:11.017Z,5.50
2022-08-09T13:55:38.415Z,5.00
2022-08-09T13:58:11.516Z,4.95
2022-08-09T14:00:50.321Z,4.82
2022-08-09T14:04:01.436Z,4.60
2022-08-09T14:06:19.452Z,5.38
2022-08-09T14:08:54.507Z,5.03
2022-08-09T14:11:22.603Z,4.82
2022-08-09T14:14:16.150Z,5.00
2022-08-09T14:16:38.339Z,4.75
2022-08-09T14:19:07.818Z,4.70
2022-08-09T14:21:35.366Z,4.70
2022-08-09T14:24:10.479Z,4.95
2022-08-09T14:26:51.153Z,4.63
2022-08-09T14:29:25.820Z,4.50
2022-08-09T14:32:11.098Z,5.20
2022-08-09T14:34:41.146Z,4.95
2022-08-09T14:37:09.298Z,4.90
2022-08-09T14:39:46.609Z,5.20
2022-08-09T14:42:28.998Z,5.20
2022-08-09T14:46:55.114Z,4.78
2022-08-09T14:48:00.250Z,5.43
2022-08-09T14:50:34.600Z,5.03
2022-08-09T14:53:11.664Z,5.25
2022-08-09T14:55:49.813Z,6.47
2022-08-09T14:58:18.685Z,5.45
2022-08-09T15:00:48.344Z,5.32
2022-08-09T15:03:20.027Z,5.53
2022-08-09T15:05:50.278Z,5.38
2022-08-09T15:08:24.587Z,5.38
2022-08-09T15:11:00.529Z,5.13
2022-08-09T15:13:56.455Z,5.32
2022-08-09T15:16:17.469Z,5.30
2022-08-09T15:18:48.910Z,5.07
2022-08-09T15:21:55.920Z,4.88
2022-08-09T15:24:12.500Z,4.80
2022-08-09T15:26:45.969Z,5.47
2022-08-09T15:30:49.972Z,5.30
2022-08-09T15:32:02.898Z,5.80
2022-08-09T15:34:34.396Z,5.45
2022-08-09T15:37:04.074Z,4.97
2022-08-09T15:39:34.614Z,5.32
2022-08-09T15:42:11.576Z,5.32
2022-08-09T15:44:39.191Z,5.22
2022-08-09T15:47:07.013Z,5.20
2022-08-09T15:50:00.529Z,5.05
2022-08-09T15:52:30.559Z,5.28
2022-08-09T15:54:58.916Z,5.15
2022-08-09T15:57:34.948Z,4.90
2022-08-09T16:00:17.101Z,4.70
2022-08-09T16:02:56.096Z,5.00
2022-08-09T16:05:47.123Z,5.40
2022-08-09T16:08:29.852Z,4.88
2022-08-09T16:11:04.740Z,4.93
2022-08-09T16:14:04.857Z,5.28
2022-08-09T16:16:26.169Z,5.13
2022-08-09T16:18:56.455Z,5.30
2022-08-09T16:21:25.061Z,5.68
2022-08-09T16:24:05.245Z,5.15
2022-08-09T16:26:43.930Z,5.40
2022-08-09T16:29:20.127Z,4.95
2022-08-09T16:32:18.753Z,5.07
2022-08-09T16:34:56.513Z,5.00
2022-08-09T16:37:54.604Z,5.47
2022-08-09T16:40:20.378Z,4.82
2022-08-09T16:42:57.246Z,4.78
2022-08-09T16:45:24.837Z,4.20
2022-08-09T16:48:39.565Z,4.45
2022-08-09T16:50:49.620Z,4.78
2022-08-09T16:53:33.922Z,5.32
2022-08-09T16:56:07.562Z,4.65
2022-08-09T16:58:39.860Z,4.70
2022-08-09T17:01:10.566Z,4.65
2022-08-09T17:03:38.221Z,4.80
2022-08-09T17:06:28.981Z,4.43
2022-08-09T17:09:11.779Z,4.35
2022-08-09T17:11:44.671Z,4.70
2022-08-09T17:14:25.902Z,4.20
2022-08-09T17:17:00.067Z,4.18
2022-08-09T17:20:06.004Z,3.80
2022-08-09T17:22:25.124Z,3.63
2022-08-09T17:25:03.230Z,4.20
2022-08-09T17:27:33.374Z,3.70
2022-08-09T17:30:06.741Z,3.80
2022-08-09T17:32:38.302Z,4.15
2022-08-09T17:35:11.547Z,3.50
2022-08-09T17:38:12.141Z,3.50
2022-08-09T17:40:34.767Z,3.65
2022-08-09T17:43:32.834Z,4.10
2022-08-09T17:46:02.989Z,4.25
2022-08-09T17:48:52.058Z,3.88
2022-08-09T17:51:21.440Z,4.03
2022-08-09T17:53:52.925Z,3.92
2022-08-09T17:56:29.248Z,4.00
2022-08-09T17:59:09.625Z,3.50
2022-08-09T18:02:07.392Z,3.83
2022-08-09T18:04:29.723Z,4.05
2022-08-09T18:06:58.278Z,3.95
2022-08-09T18:09:40.523Z,3.70
2022-08-09T18:12:15.400Z,4.07
2022-08-09T18:14:53.750Z,3.60
2022-08-09T18:18:02.829Z,3.90
2022-08-09T18:21:00.836Z,3.80
2022-08-09T18:23:05.784Z,4.03
2022-08-09T18:25:52.517Z,3.90
2022-08-09T18:30:42.269Z,3.95
2022-08-09T18:31:15.363Z,3.83
2022-08-09T18:33:53.951Z,4.22
2022-08-09T18:36:31.938Z,4.10
2022-08-09T18:39:02.736Z,3.78
2022-08-09T18:41:34.495Z,4.15
2022-08-09T18:44:12.402Z,3.70
2022-08-09T18:46:49.687Z,4.22
2022-08-09T18:49:28.075Z,4.10
2022-08-09T18:51:59.889Z,4.20
2022-08-09T18:54:29.401Z,4.75
2022-08-09T18:57:05.521Z,4.55
2022-08-09T18:59:49.592Z,4.63
2022-08-09T19:02:30.543Z,4.53
2022-08-09T19:05:04.357Z,4.70
2022-08-09T19:07:43.224Z,4.65
2022-08-09T19:10:27.569Z,4.60
2022-08-09T19:13:04.675Z,4.68
2022-08-09T19:15:47.196Z,4.35
2022-08-09T19:18:33.018Z,4.60
2022-08-09T19:21:02.665Z,4.53
2022-08-09T19:24:32.713Z,4.47
2022-08-09T19:26:17.478Z,4.40
2022-08-09T19:28:48.911Z,4.75
2022-08-09T19:31:16.965Z,4.80
2022-08-09T19:33:44.401Z,5.07
2022-08-09T19:36:13.528Z,5.25
2022-08-09T19:38:41.135Z,4.65
2022-08-09T19:41:10.531Z,5.00
2022-08-09T19:43:57.891Z,5.28
2022-08-09T19:46:34.885Z,5.80
2022-08-09T19:50:08.329Z,6.88
2022-08-09T19:51:55.377Z,8.38
2022-08-09T19:54:25.811Z,8.50
2022-08-09T19:56:57.289Z,8.10
2022-08-09T19:59:58.343Z,7.10
2022-08-09T20:02:36.231Z,5.20
2022-08-09T20:05:09.829Z,5.65
2022-08-09T20:07:59.231Z,5.30
2022-08-09T20:10:36.536Z,6.03
2022-08-09T20:13:06.633Z,5.93
2022-08-09T20:16:37.975Z,6.57
2022-08-09T20:18:28.209Z,6.18
2022-08-09T20:20:57.331Z,6.22
2022-08-09T20:23:38.903Z,6.43
2022-08-09T20:28:48.860Z,5.90
2022-08-09T20:31:18.274Z,6.85
2022-08-09T20:33:52.485Z,6.95
2022-08-09T20:36:27.311Z,6.70
2022-08-09T20:39:29.069Z,7.20
2022-08-09T20:41:42.821Z,6.80
2022-08-09T20:44:10.821Z,6.85
2022-08-09T20:46:43.020Z,6.32
2022-08-09T20:49:16.023Z,6.90
2022-08-09T20:51:50.526Z,7.43
2022-08-09T20:54:18.384Z,7.13
2022-08-09T20:56:49.426Z,7.43
2022-08-09T20:59:25.107Z,7.47
2022-08-09T21:02:05.403Z,7.40
2022-08-09T21:05:56.984Z,6.95
2022-08-09T21:07:20.271Z,7.20
2022-08-09T21:09:58.563Z,7.03
2022-08-09T21:15:17.155Z,5.68
2022-08-09T21:18:22.016Z,6.75
2022-08-09T21:20:38.533Z,6.35
2022-08-09T21:23:09.310Z,6.03
2022-08-09T21:25:59.494Z,6.70
2022-08-09T21:28:34.744Z,6.82
2022-08-09T21:31:17.204Z,6.63
2022-08-09T21:33:50.733Z,6.70
2022-08-09T21:36:25.806Z,6.53
2022-08-09T21:38:57.523Z,6.93
2022-08-09T21:42:05.975Z,7.28
2022-08-09T21:44:32.763Z,6.65
2022-08-09T21:47:07.963Z,7.43
2022-08-09T21:49:40.541Z,6.88
2022-08-09T21:52:14.821Z,7.40
2022-08-09T21:55:03.181Z,6.80
2022-08-09T21:57:39.218Z,7.15
2022-08-09T22:00:31.887Z,7.90
2022-08-09T22:03:04.916Z,7.50
2022-08-09T22:05:37.013Z,6.55
2022-08-09T22:08:13.066Z,7.70
2022-08-09T22:11:05.176Z,7.07
2022-08-09T22:13:35.452Z,7.85
2022-08-09T22:16:08.810Z,7.03
2022-08-09T22:18:53.040Z,7.47
2022-08-09T22:21:50.280Z,8.05
2022-08-09T22:24:21.008Z,7.18
2022-08-09T22:26:52.799Z,7.88
2022-08-09T22:29:28.450Z,7.93
2022-08-09T22:32:02.269Z,8.13
2022-08-09T22:34:29.900Z,6.93
2022-08-09T22:36:58.957Z,7.93
2022-08-09T22:39:55.481Z,7.55
2022-08-09T22:42:21.501Z,8.57
2022-08-09T22:48:05.044Z,7.78
2022-08-09T22:48:16.321Z,8.02
2022-08-09T22:50:30.164Z,7.93
2022-08-09T22:52:58.861Z,8.80
2022-08-09T22:55:39.761Z,8.15
2022-08-09T22:58:30.949Z,8.55
2022-08-09T23:01:05.979Z,7.93
2022-08-09T23:04:04.778Z,8.45
2022-08-09T23:06:34.734Z,8.18
2022-08-09T23:09:07.161Z,7.85
2022-08-09T23:11:35.266Z,8.45
2022-08-09T23:14:03.858Z,7.88
2022-08-09T23:16:31.943Z,8.27
2022-08-09T23:18:59.685Z,8.50
2022-08-09T23:21:32.762Z,7.60
2022-08-09T23:24:06.100Z,8.27
2022-08-09T23:26:38.495Z,7.60
2022-08-09T23:29:13.930Z,8.40
2022-08-09T23:31:42.084Z,8.95
2022-08-09T23:34:09.626Z,8.77
2022-08-09T23:36:37.291Z,8.63
2022-08-09T23:39:06.728Z,7.95
2022-08-09T23:41:35.148Z,8.98
2022-08-09T23:44:03.361Z,8.50
2022-08-09T23:46:31.715Z,10.02
2022-08-09T23:49:00.202Z,9.38
2022-08-09T23:51:28.009Z,11.50
2022-08-09T23:54:02.645Z,10.38
2022-08-09T23:56:53.400Z,9.80
2022-08-09T23:59:22.937Z,10.53
